sensor_id;sensor_type;location;lat;lon;timestamp;temperature;humidity
10089;DHT22;51898;49.864;8.550;2023-08-17T00:01:01;18.40;99.20
10089;DHT22;51898;49.864;8.550;2023-08-17T00:04:03;18.40;99.20
10089;DHT22;51898;49.864;8.550;2023-08-17T00:07:05;18.40;99.00
10089;DHT22;51898;49.864;8.550;2023-08-17T00:10:07;18.40;99.00
10089;DHT22;51898;49.864;8.550;2023-08-17T00:13:09;18.40;98.90
10089;DHT22;51898;49.864;8.550;2023-08-17T00:16:11;18.30;99.00
10089;DHT22;51898;49.864;8.550;2023-08-17T00:19:13;18.30;99.20
10089;DHT22;51898;49.864;8.550;2023-08-17T00:22:15;18.30;99.20
10089;DHT22;51898;49.864;8.550;2023-08-17T00:25:17;18.20;99.20
10089;DHT22;51898;49.864;8.550;2023-08-17T00:28:18;18.20;99.30
10089;DHT22;51898;49.864;8.550;2023-08-17T00:31:20;18.20;99.40
10089;DHT22;51898;49.864;8.550;2023-08-17T00:34:22;18.20;99.40
10089;DHT22;51898;49.864;8.550;2023-08-17T00:37:23;18.20;99.40
10089;DHT22;51898;49.864;8.550;2023-08-17T00:40:25;18.20;99.40
10089;DHT22;51898;49.864;8.550;2023-08-17T00:43:27;18.20;99.50
10089;DHT22;51898;49.864;8.550;2023-08-17T00:46:29;18.20;99.50
10089;DHT22;51898;49.864;8.550;2023-08-17T00:49:32;18.10;99.80
10089;DHT22;51898;49.864;8.550;2023-08-17T00:52:34;18.00;100.00
10089;DHT22;51898;49.864;8.550;2023-08-17T00:55:36;18.00;100.00
10089;DHT22;51898;49.864;8.550;2023-08-17T00:58:40;18.00;100.00
10089;DHT22;51898;49.864;8.550;2023-08-17T01:01:42;18.00;100.00
10089;DHT22;51898;49.864;8.550;2023-08-17T01:04:45;18.00;100.00
10089;DHT22;51898;49.864;8.550;2023-08-17T01:07:46;17.90;100.00
10089;DHT22;51898;49.864;8.550;2023-08-17T01:10:58;17.90;100.00
10089;DHT22;51898;49.864;8.550;2023-08-17T01:14:02;17.90;100.00
10089;DHT22;51898;49.864;8.550;2023-08-17T01:17:58;17.90;100.00
10089;DHT22;51898;49.864;8.550;2023-08-17T01:21:03;17.90;100.00
10089;DHT22;51898;49.864;8.550;2023-08-17T01:24:07;17.80;100.00
10089;DHT22;51898;49.864;8.550;2023-08-17T01:27:09;17.80;100.00
10089;DHT22;51898;49.864;8.550;2023-08-17T01:30:13;17.80;100.00
10089;DHT22;51898;49.864;8.550;2023-08-17T01:33:23;17.80;100.00
10089;DHT22;51898;49.864;8.550;2023-08-17T01:36:30;17.80;100.00
10089;DHT22;51898;49.864;8.550;2023-08-17T01:39:37;17.80;100.00
10089;DHT22;51898;49.864;8.550;2023-08-17T01:42:39;17.80;100.00
10089;DHT22;51898;49.864;8.550;2023-08-17T01:45:41;17.80;100.00
10089;DHT22;51898;49.864;8.550;2023-08-17T01:48:43;17.80;100.00
10089;DHT22;51898;49.864;8.550;2023-08-17T01:51:45;17.80;100.00
10089;DHT22;51898;49.864;8.550;2023-08-17T01:54:47;17.80;100.00
10089;DHT22;51898;49.864;8.550;2023-08-17T01:57:49;17.80;100.00
10089;DHT22;51898;49.864;8.550;2023-08-17T02:00:50;17.80;100.00
10089;DHT22;51898;49.864;8.550;2023-08-17T02:03:52;17.80;100.00
10089;DHT22;51898;49.864;8.550;2023-08-17T02:06:54;17.80;100.00
10089;DHT22;51898;49.864;8.550;2023-08-17T02:09:56;17.80;100.00
10089;DHT22;51898;49.864;8.550;2023-08-17T02:12:57;17.80;100.00
10089;DHT22;51898;49.864;8.550;2023-08-17T02:16:09;17.80;100.00
10089;DHT22;51898;49.864;8.550;2023-08-17T02:19:11;17.70;100.00
10089;DHT22;51898;49.864;8.550;2023-08-17T02:22:14;17.70;100.00
10089;DHT22;51898;49.864;8.550;2023-08-17T02:25:15;17.70;100.00
10089;DHT22;51898;49.864;8.550;2023-08-17T02:28:17;17.70;100.00
10089;DHT22;51898;49.864;8.550;2023-08-17T02:31:19;17.70;100.00
10089;DHT22;51898;49.864;8.550;2023-08-17T02:34:20;17.70;100.00
10089;DHT22;51898;49.864;8.550;2023-08-17T02:37:22;17.70;100.00
10089;DHT22;51898;49.864;8.550;2023-08-17T02:40:24;17.70;100.00
10089;DHT22;51898;49.864;8.550;2023-08-17T02:43:26;17.60;100.00
10089;DHT22;51898;49.864;8.550;2023-08-17T02:46:28;17.60;100.00
10089;DHT22;51898;49.864;8.550;2023-08-17T02:49:30;17.60;100.00
10089;DHT22;51898;49.864;8.550;2023-08-17T02:52:31;17.60;100.00
10089;DHT22;51898;49.864;8.550;2023-08-17T02:55:33;17.60;100.00
10089;DHT22;51898;49.864;8.550;2023-08-17T02:58:35;17.60;100.00
10089;DHT22;51898;49.864;8.550;2023-08-17T03:01:37;17.50;100.00
10089;DHT22;51898;49.864;8.550;2023-08-17T03:04:39;17.50;100.00
10089;DHT22;51898;49.864;8.550;2023-08-17T03:07:41;17.50;100.00
10089;DHT22;51898;49.864;8.550;2023-08-17T03:10:42;17.50;100.00
10089;DHT22;51898;49.864;8.550;2023-08-17T03:13:44;17.50;100.00
10089;DHT22;51898;49.864;8.550;2023-08-17T03:16:47;17.50;100.00
10089;DHT22;51898;49.864;8.550;2023-08-17T03:19:49;17.50;100.00
10089;DHT22;51898;49.864;8.550;2023-08-17T03:22:50;17.50;100.00
10089;DHT22;51898;49.864;8.550;2023-08-17T03:25:53;17.50;100.00
10089;DHT22;51898;49.864;8.550;2023-08-17T03:28:57;17.50;100.00
10089;DHT22;51898;49.864;8.550;2023-08-17T03:31:58;17.50;100.00
10089;DHT22;51898;49.864;8.550;2023-08-17T03:35:00;17.50;100.00
10089;DHT22;51898;49.864;8.550;2023-08-17T03:38:02;17.50;100.00
10089;DHT22;51898;49.864;8.550;2023-08-17T03:41:03;17.40;100.00
10089;DHT22;51898;49.864;8.550;2023-08-17T03:44:05;17.50;100.00
10089;DHT22;51898;49.864;8.550;2023-08-17T03:47:08;17.40;100.00
10089;DHT22;51898;49.864;8.550;2023-08-17T03:50:10;17.40;100.00
10089;DHT22;51898;49.864;8.550;2023-08-17T03:53:11;17.40;100.00
10089;DHT22;51898;49.864;8.550;2023-08-17T03:56:13;17.40;100.00
10089;DHT22;51898;49.864;8.550;2023-08-17T03:59:15;17.40;100.00
10089;DHT22;51898;49.864;8.550;2023-08-17T04:02:16;17.40;100.00
10089;DHT22;51898;49.864;8.550;2023-08-17T04:05:18;17.40;100.00
10089;DHT22;51898;49.864;8.550;2023-08-17T04:08:20;17.40;100.00
10089;DHT22;51898;49.864;8.550;2023-08-17T04:11:22;17.50;100.00
10089;DHT22;51898;49.864;8.550;2023-08-17T04:14:23;17.50;100.00
10089;DHT22;51898;49.864;8.550;2023-08-17T04:17:25;17.50;100.00
10089;DHT22;51898;49.864;8.550;2023-08-17T04:20:28;17.50;100.00
10089;DHT22;51898;49.864;8.550;2023-08-17T04:23:29;17.50;100.00
10089;DHT22;51898;49.864;8.550;2023-08-17T04:26:31;17.50;100.00
10089;DHT22;51898;49.864;8.550;2023-08-17T04:29:33;17.60;100.00
10089;DHT22;51898;49.864;8.550;2023-08-17T04:32:35;17.60;100.00
10089;DHT22;51898;49.864;8.550;2023-08-17T04:35:36;17.70;100.00
10089;DHT22;51898;49.864;8.550;2023-08-17T04:38:38;17.70;100.00
10089;DHT22;51898;49.864;8.550;2023-08-17T04:41:40;17.80;100.00
10089;DHT22;51898;49.864;8.550;2023-08-17T04:44:42;17.80;100.00
10089;DHT22;51898;49.864;8.550;2023-08-17T04:47:44;17.90;100.00
10089;DHT22;51898;49.864;8.550;2023-08-17T04:50:48;17.90;100.00
10089;DHT22;51898;49.864;8.550;2023-08-17T04:53:50;17.90;100.00
10089;DHT22;51898;49.864;8.550;2023-08-17T04:56:51;17.90;100.00
10089;DHT22;51898;49.864;8.550;2023-08-17T04:59:53;17.90;100.00
10089;DHT22;51898;49.864;8.550;2023-08-17T05:02:55;17.90;100.00
10089;DHT22;51898;49.864;8.550;2023-08-17T05:05:57;17.90;100.00
10089;DHT22;51898;49.864;8.550;2023-08-17T05:08:59;17.90;100.00
10089;DHT22;51898;49.864;8.550;2023-08-17T05:12:01;17.80;100.00
10089;DHT22;51898;49.864;8.550;2023-08-17T05:15:03;17.90;100.00
10089;DHT22;51898;49.864;8.550;2023-08-17T05:18:05;17.90;100.00
10089;DHT22;51898;49.864;8.550;2023-08-17T05:21:07;17.90;100.00
10089;DHT22;51898;49.864;8.550;2023-08-17T05:24:09;17.90;100.00
10089;DHT22;51898;49.864;8.550;2023-08-17T05:27:10;18.00;100.00
10089;DHT22;51898;49.864;8.550;2023-08-17T05:30:12;18.10;100.00
10089;DHT22;51898;49.864;8.550;2023-08-17T05:33:14;18.10;100.00
10089;DHT22;51898;49.864;8.550;2023-08-17T05:36:15;18.20;100.00
10089;DHT22;51898;49.864;8.550;2023-08-17T05:39:17;18.30;100.00
10089;DHT22;51898;49.864;8.550;2023-08-17T05:42:19;18.30;100.00
10089;DHT22;51898;49.864;8.550;2023-08-17T05:45:21;18.30;100.00
10089;DHT22;51898;49.864;8.550;2023-08-17T05:48:22;18.40;100.00
10089;DHT22;51898;49.864;8.550;2023-08-17T05:51:24;18.40;100.00
10089;DHT22;51898;49.864;8.550;2023-08-17T05:54:26;18.50;100.00
10089;DHT22;51898;49.864;8.550;2023-08-17T05:57:28;18.50;100.00
10089;DHT22;51898;49.864;8.550;2023-08-17T06:00:30;18.50;99.70
10089;DHT22;51898;49.864;8.550;2023-08-17T06:03:32;18.50;99.70
10089;DHT22;51898;49.864;8.550;2023-08-17T06:06:34;18.60;99.80
10089;DHT22;51898;49.864;8.550;2023-08-17T06:09:36;18.50;99.70
10089;DHT22;51898;49.864;8.550;2023-08-17T06:12:37;18.60;99.70
10089;DHT22;51898;49.864;8.550;2023-08-17T06:15:39;18.60;99.10
10089;DHT22;51898;49.864;8.550;2023-08-17T06:18:41;18.70;98.90
10089;DHT22;51898;49.864;8.550;2023-08-17T06:21:43;18.80;98.50
10089;DHT22;51898;49.864;8.550;2023-08-17T06:24:44;18.90;98.50
10089;DHT22;51898;49.864;8.550;2023-08-17T06:27:49;18.90;97.60
10089;DHT22;51898;49.864;8.550;2023-08-17T06:30:54;18.90;97.50
10089;DHT22;51898;49.864;8.550;2023-08-17T06:33:57;18.90;97.50
10089;DHT22;51898;49.864;8.550;2023-08-17T06:37:01;19.10;97.40
10089;DHT22;51898;49.864;8.550;2023-08-17T06:40:04;19.10;97.10
10089;DHT22;51898;49.864;8.550;2023-08-17T06:43:07;19.20;96.90
10089;DHT22;51898;49.864;8.550;2023-08-17T06:46:08;19.20;96.80
10089;DHT22;51898;49.864;8.550;2023-08-17T06:49:11;19.30;96.30
10089;DHT22;51898;49.864;8.550;2023-08-17T06:52:13;19.40;96.20
10089;DHT22;51898;49.864;8.550;2023-08-17T06:55:15;19.50;96.20
10089;DHT22;51898;49.864;8.550;2023-08-17T06:58:18;19.60;94.30
10089;DHT22;51898;49.864;8.550;2023-08-17T07:01:20;19.70;94.60
10089;DHT22;51898;49.864;8.550;2023-08-17T07:04:21;19.80;94.40
10089;DHT22;51898;49.864;8.550;2023-08-17T07:07:25;20.00;94.10
10089;DHT22;51898;49.864;8.550;2023-08-17T07:10:28;20.10;94.00
10089;DHT22;51898;49.864;8.550;2023-08-17T07:13:29;20.30;92.40
10089;DHT22;51898;49.864;8.550;2023-08-17T07:16:31;20.20;91.90
10089;DHT22;51898;49.864;8.550;2023-08-17T07:19:33;20.10;92.20
10089;DHT22;51898;49.864;8.550;2023-08-17T07:22:55;20.00;92.80
10089;DHT22;51898;49.864;8.550;2023-08-17T07:25:56;20.10;92.30
10089;DHT22;51898;49.864;8.550;2023-08-17T07:28:58;20.00;92.30
10089;DHT22;51898;49.864;8.550;2023-08-17T07:32:00;19.90;92.70
10089;DHT22;51898;49.864;8.550;2023-08-17T07:35:03;19.90;92.40
10089;DHT22;51898;49.864;8.550;2023-08-17T07:38:08;19.80;93.20
10089;DHT22;51898;49.864;8.550;2023-08-17T07:41:10;19.90;93.40
10089;DHT22;51898;49.864;8.550;2023-08-17T07:44:12;20.00;93.00
10089;DHT22;51898;49.864;8.550;2023-08-17T07:47:13;20.10;93.60
10089;DHT22;51898;49.864;8.550;2023-08-17T07:50:15;20.20;92.20
10089;DHT22;51898;49.864;8.550;2023-08-17T07:53:20;20.30;92.10
10089;DHT22;51898;49.864;8.550;2023-08-17T07:56:21;20.40;91.70
10089;DHT22;51898;49.864;8.550;2023-08-17T07:59:23;20.50;91.60
10089;DHT22;51898;49.864;8.550;2023-08-17T08:02:25;20.70;91.00
10089;DHT22;51898;49.864;8.550;2023-08-17T08:05:27;20.70;90.20
10089;DHT22;51898;49.864;8.550;2023-08-17T08:08:29;20.80;89.50
10089;DHT22;51898;49.864;8.550;2023-08-17T08:11:30;21.00;89.50
10089;DHT22;51898;49.864;8.550;2023-08-17T08:14:33;21.10;88.90
10089;DHT22;51898;49.864;8.550;2023-08-17T08:17:34;21.10;87.90
10089;DHT22;51898;49.864;8.550;2023-08-17T08:20:37;21.10;88.30
10089;DHT22;51898;49.864;8.550;2023-08-17T08:23:39;21.10;88.10
10089;DHT22;51898;49.864;8.550;2023-08-17T08:26:41;21.00;88.40
10089;DHT22;51898;49.864;8.550;2023-08-17T08:29:43;21.20;89.00
10089;DHT22;51898;49.864;8.550;2023-08-17T08:32:45;21.30;88.70
10089;DHT22;51898;49.864;8.550;2023-08-17T08:35:46;21.20;88.40
10089;DHT22;51898;49.864;8.550;2023-08-17T08:38:48;21.20;88.80
10089;DHT22;51898;49.864;8.550;2023-08-17T08:41:50;21.20;88.70
10089;DHT22;51898;49.864;8.550;2023-08-17T08:44:52;21.20;88.20
10089;DHT22;51898;49.864;8.550;2023-08-17T08:47:54;21.20;88.50
10089;DHT22;51898;49.864;8.550;2023-08-17T08:50:59;21.30;88.80
10089;DHT22;51898;49.864;8.550;2023-08-17T08:54:02;21.40;88.20
10089;DHT22;51898;49.864;8.550;2023-08-17T08:57:09;21.40;88.40
10089;DHT22;51898;49.864;8.550;2023-08-17T09:00:13;21.50;88.00
10089;DHT22;51898;49.864;8.550;2023-08-17T09:03:16;21.50;87.10
10089;DHT22;51898;49.864;8.550;2023-08-17T09:06:23;21.60;87.10
10089;DHT22;51898;49.864;8.550;2023-08-17T09:09:45;21.60;86.60
10089;DHT22;51898;49.864;8.550;2023-08-17T09:12:47;21.70;87.10
10089;DHT22;51898;49.864;8.550;2023-08-17T09:15:50;21.90;86.50
10089;DHT22;51898;49.864;8.550;2023-08-17T09:18:53;22.10;84.80
10089;DHT22;51898;49.864;8.550;2023-08-17T09:21:55;22.20;84.50
10089;DHT22;51898;49.864;8.550;2023-08-17T09:24:57;22.20;84.50
10089;DHT22;51898;49.864;8.550;2023-08-17T09:28:16;22.30;84.10
10089;DHT22;51898;49.864;8.550;2023-08-17T09:31:21;22.30;83.10
10089;DHT22;51898;49.864;8.550;2023-08-17T09:34:23;22.40;83.20
10089;DHT22;51898;49.864;8.550;2023-08-17T09:37:27;22.60;82.90
10089;DHT22;51898;49.864;8.550;2023-08-17T09:40:28;22.70;82.00
10089;DHT22;51898;49.864;8.550;2023-08-17T09:43:30;22.70;81.30
10089;DHT22;51898;49.864;8.550;2023-08-17T09:46:34;22.80;81.70
10089;DHT22;51898;49.864;8.550;2023-08-17T09:49:36;22.90;81.70
10089;DHT22;51898;49.864;8.550;2023-08-17T09:52:38;22.90;80.50
10089;DHT22;51898;49.864;8.550;2023-08-17T09:55:42;23.00;80.70
10089;DHT22;51898;49.864;8.550;2023-08-17T09:58:44;23.10;79.70
10089;DHT22;51898;49.864;8.550;2023-08-17T10:01:48;23.10;80.00
10089;DHT22;51898;49.864;8.550;2023-08-17T10:04:57;23.20;79.50
10089;DHT22;51898;49.864;8.550;2023-08-17T10:08:00;23.40;79.60
10089;DHT22;51898;49.864;8.550;2023-08-17T10:11:06;23.50;78.10
10089;DHT22;51898;49.864;8.550;2023-08-17T10:14:18;23.70;77.80
10089;DHT22;51898;49.864;8.550;2023-08-17T10:17:26;23.70;78.50
10089;DHT22;51898;49.864;8.550;2023-08-17T10:20:30;23.90;77.20
10089;DHT22;51898;49.864;8.550;2023-08-17T10:23:35;24.10;76.70
10089;DHT22;51898;49.864;8.550;2023-08-17T10:26:44;24.10;75.70
10089;DHT22;51898;49.864;8.550;2023-08-17T10:29:47;23.90;76.10
10089;DHT22;51898;49.864;8.550;2023-08-17T10:32:49;23.80;76.60
10089;DHT22;51898;49.864;8.550;2023-08-17T10:35:52;23.70;76.60
10089;DHT22;51898;49.864;8.550;2023-08-17T10:39:22;23.60;77.50
10089;DHT22;51898;49.864;8.550;2023-08-17T10:42:33;23.60;77.90
10089;DHT22;51898;49.864;8.550;2023-08-17T10:45:37;23.50;78.00
10089;DHT22;51898;49.864;8.550;2023-08-17T10:48:43;23.60;78.30
10089;DHT22;51898;49.864;8.550;2023-08-17T10:52:01;23.60;78.20
10089;DHT22;51898;49.864;8.550;2023-08-17T10:55:09;23.70;78.10
10089;DHT22;51898;49.864;8.550;2023-08-17T10:58:11;23.70;77.80
10089;DHT22;51898;49.864;8.550;2023-08-17T11:01:31;23.80;78.30
10089;DHT22;51898;49.864;8.550;2023-08-17T11:04:33;24.10;77.40
10089;DHT22;51898;49.864;8.550;2023-08-17T11:07:39;24.30;77.00
10089;DHT22;51898;49.864;8.550;2023-08-17T11:10:41;24.40;75.40
10089;DHT22;51898;49.864;8.550;2023-08-17T11:13:49;24.40;76.00
10089;DHT22;51898;49.864;8.550;2023-08-17T11:16:56;24.40;75.40
10089;DHT22;51898;49.864;8.550;2023-08-17T11:19:58;24.30;75.60
10089;DHT22;51898;49.864;8.550;2023-08-17T11:23:00;24.30;75.80
10089;DHT22;51898;49.864;8.550;2023-08-17T11:26:03;24.50;76.10
10089;DHT22;51898;49.864;8.550;2023-08-17T11:29:04;24.50;75.90
10089;DHT22;51898;49.864;8.550;2023-08-17T11:32:08;24.70;75.30
10089;DHT22;51898;49.864;8.550;2023-08-17T11:35:10;24.70;75.40
10089;DHT22;51898;49.864;8.550;2023-08-17T11:38:12;24.80;74.70
10089;DHT22;51898;49.864;8.550;2023-08-17T11:41:14;24.80;74.60
10089;DHT22;51898;49.864;8.550;2023-08-17T11:44:20;24.90;75.40
10089;DHT22;51898;49.864;8.550;2023-08-17T11:47:25;24.80;75.30
10089;DHT22;51898;49.864;8.550;2023-08-17T11:50:32;24.90;74.60
10089;DHT22;51898;49.864;8.550;2023-08-17T11:53:35;25.10;74.00
10089;DHT22;51898;49.864;8.550;2023-08-17T11:56:37;25.30;73.80
10089;DHT22;51898;49.864;8.550;2023-08-17T11:59:39;25.50;73.70
10089;DHT22;51898;49.864;8.550;2023-08-17T12:02:41;25.80;71.70
10089;DHT22;51898;49.864;8.550;2023-08-17T12:05:46;25.80;72.20
10089;DHT22;51898;49.864;8.550;2023-08-17T12:08:50;26.00;72.40
10089;DHT22;51898;49.864;8.550;2023-08-17T12:11:59;26.20;70.80
10089;DHT22;51898;49.864;8.550;2023-08-17T12:15:03;26.20;69.70
10089;DHT22;51898;49.864;8.550;2023-08-17T12:18:05;26.10;70.50
10089;DHT22;51898;49.864;8.550;2023-08-17T12:21:07;26.30;71.40
10089;DHT22;51898;49.864;8.550;2023-08-17T12:24:09;26.30;70.80
10089;DHT22;51898;49.864;8.550;2023-08-17T12:27:14;26.30;71.20
10089;DHT22;51898;49.864;8.550;2023-08-17T12:30:27;26.40;72.10
10089;DHT22;51898;49.864;8.550;2023-08-17T12:33:29;26.50;72.30
10089;DHT22;51898;49.864;8.550;2023-08-17T12:36:34;26.70;72.30
10089;DHT22;51898;49.864;8.550;2023-08-17T12:39:39;26.80;72.10
10089;DHT22;51898;49.864;8.550;2023-08-17T12:42:41;26.80;72.20
10089;DHT22;51898;49.864;8.550;2023-08-17T12:45:43;27.10;70.10
10089;DHT22;51898;49.864;8.550;2023-08-17T12:48:44;27.30;70.10
10089;DHT22;51898;49.864;8.550;2023-08-17T12:51:46;27.60;69.00
10089;DHT22;51898;49.864;8.550;2023-08-17T12:54:48;27.60;66.10
10089;DHT22;51898;49.864;8.550;2023-08-17T12:57:53;27.60;66.30
10089;DHT22;51898;49.864;8.550;2023-08-17T13:00:55;27.60;67.40
10089;DHT22;51898;49.864;8.550;2023-08-17T13:03:57;27.90;67.80
10089;DHT22;51898;49.864;8.550;2023-08-17T13:06:58;28.00;66.80
10089;DHT22;51898;49.864;8.550;2023-08-17T13:10:00;27.70;66.10
10089;DHT22;51898;49.864;8.550;2023-08-17T13:13:02;27.50;66.30
10089;DHT22;51898;49.864;8.550;2023-08-17T13:16:04;27.50;66.60
10089;DHT22;51898;49.864;8.550;2023-08-17T13:19:07;27.50;67.20
10089;DHT22;51898;49.864;8.550;2023-08-17T13:22:09;27.40;67.70
10089;DHT22;51898;49.864;8.550;2023-08-17T13:25:11;27.50;67.30
10089;DHT22;51898;49.864;8.550;2023-08-17T13:28:16;27.60;66.80
10089;DHT22;51898;49.864;8.550;2023-08-17T13:31:18;27.60;67.00
10089;DHT22;51898;49.864;8.550;2023-08-17T13:34:25;27.80;66.70
10089;DHT22;51898;49.864;8.550;2023-08-17T13:37:27;28.00;66.00
10089;DHT22;51898;49.864;8.550;2023-08-17T13:40:30;28.10;64.80
10089;DHT22;51898;49.864;8.550;2023-08-17T13:43:32;28.10;64.90
10089;DHT22;51898;49.864;8.550;2023-08-17T13:46:34;27.90;65.40
10089;DHT22;51898;49.864;8.550;2023-08-17T13:49:36;28.20;64.50
10089;DHT22;51898;49.864;8.550;2023-08-17T13:52:40;28.40;63.90
10089;DHT22;51898;49.864;8.550;2023-08-17T13:55:41;28.70;61.10
10089;DHT22;51898;49.864;8.550;2023-08-17T13:58:43;28.60;62.00
10089;DHT22;51898;49.864;8.550;2023-08-17T14:01:45;28.50;62.40
10089;DHT22;51898;49.864;8.550;2023-08-17T14:04:46;28.40;63.40
10089;DHT22;51898;49.864;8.550;2023-08-17T14:07:48;28.60;61.80
10089;DHT22;51898;49.864;8.550;2023-08-17T14:10:50;28.70;62.10
10089;DHT22;51898;49.864;8.550;2023-08-17T14:13:52;29.00;61.00
10089;DHT22;51898;49.864;8.550;2023-08-17T14:16:53;29.10;59.60
10089;DHT22;51898;49.864;8.550;2023-08-17T14:19:58;29.10;58.50
10089;DHT22;51898;49.864;8.550;2023-08-17T14:23:00;29.40;59.40
10089;DHT22;51898;49.864;8.550;2023-08-17T14:26:02;29.50;58.00
10089;DHT22;51898;49.864;8.550;2023-08-17T14:29:03;29.70;58.80
10089;DHT22;51898;49.864;8.550;2023-08-17T14:32:05;29.50;57.50
10089;DHT22;51898;49.864;8.550;2023-08-17T14:35:07;29.60;58.20
10089;DHT22;51898;49.864;8.550;2023-08-17T14:38:13;29.80;57.90
10089;DHT22;51898;49.864;8.550;2023-08-17T14:41:15;29.60;58.00
10089;DHT22;51898;49.864;8.550;2023-08-17T14:44:17;29.50;58.40
10089;DHT22;51898;49.864;8.550;2023-08-17T14:47:19;29.50;57.70
10089;DHT22;51898;49.864;8.550;2023-08-17T14:50:22;29.60;56.90
10089;DHT22;51898;49.864;8.550;2023-08-17T14:53:29;29.60;58.50
10089;DHT22;51898;49.864;8.550;2023-08-17T14:56:31;29.30;58.80
10089;DHT22;51898;49.864;8.550;2023-08-17T14:59:33;29.10;58.80
10089;DHT22;51898;49.864;8.550;2023-08-17T15:02:35;28.90;59.10
10089;DHT22;51898;49.864;8.550;2023-08-17T15:05:37;28.80;60.00
10089;DHT22;51898;49.864;8.550;2023-08-17T15:08:39;29.00;59.80
10089;DHT22;51898;49.864;8.550;2023-08-17T15:11:41;29.30;58.90
10089;DHT22;51898;49.864;8.550;2023-08-17T15:14:43;29.40;57.60
10089;DHT22;51898;49.864;8.550;2023-08-17T15:17:44;29.60;58.10
10089;DHT22;51898;49.864;8.550;2023-08-17T15:20:46;29.80;57.60
10089;DHT22;51898;49.864;8.550;2023-08-17T15:23:48;29.80;57.00
10089;DHT22;51898;49.864;8.550;2023-08-17T15:26:50;29.80;57.00
10089;DHT22;51898;49.864;8.550;2023-08-17T15:29:51;29.90;56.80
10089;DHT22;51898;49.864;8.550;2023-08-17T15:32:53;29.90;57.00
10089;DHT22;51898;49.864;8.550;2023-08-17T15:35:55;29.90;57.10
10089;DHT22;51898;49.864;8.550;2023-08-17T15:39:02;29.90;57.70
10089;DHT22;51898;49.864;8.550;2023-08-17T15:42:04;29.90;56.30
10089;DHT22;51898;49.864;8.550;2023-08-17T15:45:06;29.60;57.60
10089;DHT22;51898;49.864;8.550;2023-08-17T15:48:08;29.60;57.40
10089;DHT22;51898;49.864;8.550;2023-08-17T15:51:10;29.50;57.80
10089;DHT22;51898;49.864;8.550;2023-08-17T15:54:12;29.50;57.60
10089;DHT22;51898;49.864;8.550;2023-08-17T15:57:26;29.60;57.80
10089;DHT22;51898;49.864;8.550;2023-08-17T16:00:28;29.50;57.80
10089;DHT22;51898;49.864;8.550;2023-08-17T16:03:30;29.50;58.40
10089;DHT22;51898;49.864;8.550;2023-08-17T16:06:31;29.60;58.50
10089;DHT22;51898;49.864;8.550;2023-08-17T16:09:33;29.80;57.70
10089;DHT22;51898;49.864;8.550;2023-08-17T16:12:35;30.20;56.40
10089;DHT22;51898;49.864;8.550;2023-08-17T16:15:43;30.40;54.90
10089;DHT22;51898;49.864;8.550;2023-08-17T16:18:44;30.60;54.90
10089;DHT22;51898;49.864;8.550;2023-08-17T16:21:46;30.50;54.50
10089;DHT22;51898;49.864;8.550;2023-08-17T16:24:48;30.70;54.00
10089;DHT22;51898;49.864;8.550;2023-08-17T16:27:50;30.90;53.50
10089;DHT22;51898;49.864;8.550;2023-08-17T16:30:51;31.10;54.60
10089;DHT22;51898;49.864;8.550;2023-08-17T16:33:53;31.50;53.30
10089;DHT22;51898;49.864;8.550;2023-08-17T16:36:58;31.80;52.10
10089;DHT22;51898;49.864;8.550;2023-08-17T16:40:01;32.20;52.60
10089;DHT22;51898;49.864;8.550;2023-08-17T16:43:04;32.30;51.80
10089;DHT22;51898;49.864;8.550;2023-08-17T16:46:06;32.20;51.20
10089;DHT22;51898;49.864;8.550;2023-08-17T16:49:08;31.50;52.00
10089;DHT22;51898;49.864;8.550;2023-08-17T16:52:09;31.70;52.50
10089;DHT22;51898;49.864;8.550;2023-08-17T16:55:11;31.70;51.60
10089;DHT22;51898;49.864;8.550;2023-08-17T16:58:14;31.70;51.70
10089;DHT22;51898;49.864;8.550;2023-08-17T17:01:16;31.40;52.20
10089;DHT22;51898;49.864;8.550;2023-08-17T17:04:19;31.30;51.90
10089;DHT22;51898;49.864;8.550;2023-08-17T17:07:21;31.20;52.60
10089;DHT22;51898;49.864;8.550;2023-08-17T17:10:23;31.50;51.90
10089;DHT22;51898;49.864;8.550;2023-08-17T17:13:27;31.40;52.10
10089;DHT22;51898;49.864;8.550;2023-08-17T17:16:29;31.10;52.00
10089;DHT22;51898;49.864;8.550;2023-08-17T17:19:31;30.60;53.10
10089;DHT22;51898;49.864;8.550;2023-08-17T17:22:32;30.60;54.70
10089;DHT22;51898;49.864;8.550;2023-08-17T17:25:34;30.60;53.30
10089;DHT22;51898;49.864;8.550;2023-08-17T17:28:36;30.50;53.20
10089;DHT22;51898;49.864;8.550;2023-08-17T17:31:38;30.40;53.40
10089;DHT22;51898;49.864;8.550;2023-08-17T17:34:40;30.30;54.30
10089;DHT22;51898;49.864;8.550;2023-08-17T17:37:42;30.00;54.40
10089;DHT22;51898;49.864;8.550;2023-08-17T17:40:43;29.90;54.80
10089;DHT22;51898;49.864;8.550;2023-08-17T17:43:46;29.90;55.10
10089;DHT22;51898;49.864;8.550;2023-08-17T17:46:48;29.90;55.50
10089;DHT22;51898;49.864;8.550;2023-08-17T17:49:49;29.20;56.20
10089;DHT22;51898;49.864;8.550;2023-08-17T17:52:51;28.90;57.30
10089;DHT22;51898;49.864;8.550;2023-08-17T17:55:53;28.40;58.40
10089;DHT22;51898;49.864;8.550;2023-08-17T17:58:55;28.00;59.20
10089;DHT22;51898;49.864;8.550;2023-08-17T18:01:56;27.80;60.20
10089;DHT22;51898;49.864;8.550;2023-08-17T18:04:58;27.60;60.60
10089;DHT22;51898;49.864;8.550;2023-08-17T18:08:00;27.20;60.80
10089;DHT22;51898;49.864;8.550;2023-08-17T18:11:02;27.00;61.80
10089;DHT22;51898;49.864;8.550;2023-08-17T18:14:06;26.90;62.50
10089;DHT22;51898;49.864;8.550;2023-08-17T18:17:08;26.70;63.00
10089;DHT22;51898;49.864;8.550;2023-08-17T18:20:10;26.60;63.30
10089;DHT22;51898;49.864;8.550;2023-08-17T18:23:12;26.50;64.00
10089;DHT22;51898;49.864;8.550;2023-08-17T18:26:14;26.30;64.20
10089;DHT22;51898;49.864;8.550;2023-08-17T18:29:15;26.20;64.50
10089;DHT22;51898;49.864;8.550;2023-08-17T18:32:17;26.10;64.90
10089;DHT22;51898;49.864;8.550;2023-08-17T18:35:19;26.00;65.50
10089;DHT22;51898;49.864;8.550;2023-08-17T18:38:22;25.90;65.70
10089;DHT22;51898;49.864;8.550;2023-08-17T18:41:24;25.80;65.90
10089;DHT22;51898;49.864;8.550;2023-08-17T18:44:26;25.70;66.00
10089;DHT22;51898;49.864;8.550;2023-08-17T18:47:27;25.60;66.50
10089;DHT22;51898;49.864;8.550;2023-08-17T18:50:29;25.50;66.80
10089;DHT22;51898;49.864;8.550;2023-08-17T18:53:31;25.40;67.00
10089;DHT22;51898;49.864;8.550;2023-08-17T18:56:33;25.30;67.40
10089;DHT22;51898;49.864;8.550;2023-08-17T18:59:35;25.20;67.80
10089;DHT22;51898;49.864;8.550;2023-08-17T19:02:40;25.20;68.10
10089;DHT22;51898;49.864;8.550;2023-08-17T19:05:42;25.00;68.40
10089;DHT22;51898;49.864;8.550;2023-08-17T19:08:43;24.90;68.90
10089;DHT22;51898;49.864;8.550;2023-08-17T19:11:45;24.80;69.30